createdAt,value
2018-11-05T00:00:00.723Z,72.83
2018-11-05T00:02:29.711Z,76.13
2018-11-05T00:04:58.603Z,74.13
2018-11-05T00:07:29.375Z,69.87
2018-11-05T00:09:58.393Z,70.77
2018-11-05T00:12:27.668Z,73.20
2018-11-05T00:14:57.451Z,69.43
2018-11-05T00:17:28.171Z,67.60
2018-11-05T00:19:57.096Z,67.17
2018-11-05T00:22:26.090Z,67.47
2018-11-05T00:24:54.836Z,68.07
2018-11-05T00:27:24.088Z,64.67
2018-11-05T00:29:52.959Z,68.93
2018-11-05T00:32:21.733Z,68.40
2018-11-05T00:34:51.781Z,70.37
2018-11-05T00:37:20.538Z,69.80
2018-11-05T00:39:49.328Z,66.73
2018-11-05T00:42:18.178Z,68.63
2018-11-05T00:44:48.391Z,64.03
2018-11-05T00:47:17.219Z,66.17
2018-11-05T00:49:45.984Z,68.87
2018-11-05T00:52:15.857Z,68.60
2018-11-05T00:54:44.765Z,69.90
2018-11-05T00:57:13.628Z,69.27
2018-11-05T00:59:42.399Z,66.57
2018-11-05T01:02:11.595Z,69.20
2018-11-05T01:04:40.279Z,64.33
2018-11-05T01:07:09.323Z,54.97
2018-11-05T01:09:38.048Z,56.60
2018-11-05T01:12:06.911Z,59.50
2018-11-05T01:14:36.846Z,59.80
2018-11-05T01:17:06.249Z,59.47
2018-11-05T01:19:36.009Z,65.73
2018-11-05T01:22:04.999Z,65.00
2018-11-05T01:24:36.005Z,67.80
2018-11-05T01:27:04.792Z,68.87
2018-11-05T01:29:33.702Z,70.10
2018-11-05T01:32:02.705Z,68.87
2018-11-05T01:34:31.581Z,58.50
2018-11-05T01:37:00.287Z,64.13
2018-11-05T01:39:29.019Z,63.77
2018-11-05T01:41:57.647Z,67.23
2018-11-05T01:44:26.434Z,69.50
2018-11-05T01:46:55.107Z,70.27
2018-11-05T01:49:23.757Z,72.53
2018-11-05T01:51:52.426Z,68.83
2018-11-05T01:54:25.700Z,67.63
2018-11-05T01:56:54.734Z,67.73
2018-11-05T01:59:23.646Z,62.40
2018-11-05T02:01:52.444Z,62.70
2018-11-05T02:04:21.181Z,62.53
2018-11-05T02:06:50.102Z,61.57
2018-11-05T02:09:18.986Z,64.43
2018-11-05T02:11:47.784Z,59.70
2018-11-05T02:14:16.638Z,59.83
2018-11-05T02:16:45.517Z,60.77
2018-11-05T02:19:18.033Z,57.67
2018-11-05T02:21:46.678Z,57.97
2018-11-05T02:24:15.881Z,58.33
2018-11-05T02:26:44.595Z,59.43
2018-11-05T02:29:13.295Z,51.57
2018-11-05T02:31:42.201Z,52.27
2018-11-05T02:34:11.191Z,53.00
2018-11-05T02:36:40.074Z,55.73
2018-11-05T02:39:09.719Z,55.97
2018-11-05T02:41:38.543Z,56.23
2018-11-05T02:44:07.285Z,61.63
2018-11-05T02:46:36.012Z,58.03
2018-11-05T02:49:04.661Z,61.40
2018-11-05T02:51:33.253Z,62.43
2018-11-05T02:54:01.928Z,56.83
2018-11-05T02:56:30.943Z,60.20
2018-11-05T02:58:59.720Z,62.97
2018-11-05T03:01:28.822Z,61.53
2018-11-05T03:03:57.587Z,61.60
2018-11-05T03:06:26.324Z,61.67
2018-11-05T03:08:55.108Z,58.37
2018-11-05T03:11:23.805Z,58.07
2018-11-05T03:13:52.733Z,58.73
2018-11-05T03:16:21.600Z,59.27
2018-11-05T03:18:50.357Z,53.87
2018-11-05T03:21:19.138Z,49.93
2018-11-05T03:23:48.066Z,54.40
2018-11-05T03:26:16.817Z,54.53
2018-11-05T03:28:45.670Z,58.87
2018-11-05T03:31:14.462Z,63.03
2018-11-05T03:33:43.477Z,64.00
2018-11-05T03:36:12.197Z,64.67
2018-11-05T03:38:40.889Z,62.93
2018-11-05T03:41:09.554Z,58.93
2018-11-05T03:43:38.255Z,59.47
2018-11-05T03:46:07.280Z,61.03
2018-11-05T03:48:36.158Z,69.90
2018-11-05T03:51:12.261Z,60.97
2018-11-05T03:53:41.153Z,53.20
2018-11-05T03:56:10.046Z,45.53
2018-11-05T03:58:38.976Z,42.07
2018-11-05T04:01:07.678Z,43.00
2018-11-05T04:03:36.562Z,49.23
2018-11-05T04:06:05.680Z,50.12
2018-11-05T04:08:34.642Z,51.30
2018-11-05T04:11:03.455Z,53.90
2018-11-05T04:13:32.206Z,56.40
2018-11-05T04:16:01.047Z,60.65
2018-11-05T04:18:30.077Z,58.33
2018-11-05T04:21:00.921Z,54.73
2018-11-05T04:23:43.132Z,52.00
2018-11-05T04:26:11.988Z,59.33
2018-11-05T04:28:40.969Z,51.97
2018-11-05T04:31:09.769Z,49.60
2018-11-05T04:33:38.570Z,49.77
2018-11-05T04:36:07.370Z,55.93
2018-11-05T04:38:36.214Z,60.97
2018-11-05T04:41:05.215Z,60.97
2018-11-05T04:43:34.020Z,61.00
2018-11-05T04:46:02.806Z,60.73
2018-11-05T04:48:32.646Z,66.20
2018-11-05T04:51:01.354Z,64.17
2018-11-05T04:53:30.039Z,64.67
2018-11-05T04:55:58.922Z,63.83
2018-11-05T04:58:27.693Z,70.57
2018-11-05T05:00:56.432Z,68.70
2018-11-05T05:03:25.332Z,67.87
2018-11-05T05:05:54.136Z,68.27
2018-11-05T05:08:22.941Z,66.73
2018-11-05T05:10:51.814Z,70.07
2018-11-05T05:13:20.616Z,63.33
2018-11-05T05:15:49.265Z,62.07
2018-11-05T05:18:17.989Z,59.90
2018-11-05T05:20:46.732Z,51.93
2018-11-05T05:23:15.510Z,48.40
2018-11-05T05:25:44.326Z,44.53
2018-11-05T05:28:13.036Z,44.27
2018-11-05T05:30:41.756Z,38.40
2018-11-05T05:33:10.720Z,40.27
2018-11-05T05:35:39.219Z,39.67
2018-11-05T05:38:08.098Z,41.33
2018-11-05T05:40:36.798Z,46.17
2018-11-05T05:43:05.750Z,40.77
2018-11-05T05:45:34.431Z,44.50
2018-11-05T05:48:03.182Z,50.07
2018-11-05T05:50:31.975Z,55.37
2018-11-05T05:53:02.034Z,60.80
2018-11-05T05:55:34.115Z,61.00
2018-11-05T05:58:02.814Z,58.53
2018-11-05T06:00:31.537Z,59.17
2018-11-05T06:03:00.254Z,63.00
2018-11-05T06:05:28.982Z,59.43
2018-11-05T06:07:57.752Z,52.90
2018-11-05T06:10:26.521Z,44.50
2018-11-05T06:12:55.309Z,55.00
2018-11-05T06:15:24.119Z,56.00
2018-11-05T06:17:54.098Z,50.40
2018-11-05T06:20:22.779Z,58.13
2018-11-05T06:22:51.655Z,64.50
2018-11-05T06:25:20.384Z,66.43
2018-11-05T06:27:49.178Z,70.07
2018-11-05T06:30:19.571Z,76.80
2018-11-05T06:32:49.244Z,68.97
2018-11-05T06:35:18.243Z,66.70
2018-11-05T06:37:46.765Z,59.95
2018-11-05T06:40:17.316Z,57.30
2018-11-05T06:42:46.482Z,59.47
2018-11-05T06:45:17.362Z,62.03
2018-11-05T06:47:46.765Z,68.77
2018-11-05T06:50:17.927Z,69.70
2018-11-05T06:52:47.131Z,74.30
2018-11-05T06:55:16.329Z,68.57
2018-11-05T06:57:45.123Z,76.27
2018-11-05T07:00:22.117Z,71.03
2018-11-05T07:02:50.803Z,71.33
2018-11-05T07:05:19.702Z,75.13
2018-11-05T07:07:48.563Z,76.03
2018-11-05T07:10:18.100Z,72.27
2018-11-05T07:12:47.181Z,69.20
2018-11-05T07:15:18.050Z,61.03
2018-11-05T07:17:47.653Z,60.23
2018-11-05T07:20:18.737Z,60.17
2018-11-05T07:22:48.402Z,55.57
2018-11-05T07:25:17.488Z,45.90
2018-11-05T07:27:46.401Z,45.97
2018-11-05T07:30:18.161Z,43.27
2018-11-05T07:32:48.327Z,43.53
2018-11-05T07:35:17.103Z,47.93
2018-11-05T07:37:46.032Z,51.63
2018-11-05T07:40:15.829Z,59.80
2018-11-05T07:42:44.558Z,60.23
2018-11-05T07:45:19.616Z,58.73
2018-11-05T07:47:48.556Z,60.50
2018-11-05T07:50:18.476Z,63.30
2018-11-05T07:52:47.343Z,61.67
2018-11-05T07:55:17.253Z,62.80
2018-11-05T07:57:47.123Z,61.30
2018-11-05T08:00:21.737Z,55.87
2018-11-05T08:02:52.164Z,50.23
2018-11-05T08:05:21.813Z,49.50
2018-11-05T08:07:50.642Z,49.83
2018-11-05T08:10:23.184Z,43.40
2018-11-05T08:12:51.956Z,46.27
2018-11-05T08:15:21.982Z,45.70
2018-11-05T08:17:51.462Z,44.73
2018-11-05T08:20:24.047Z,43.63
2018-11-05T08:22:52.717Z,41.23
2018-11-05T08:25:21.436Z,38.87
2018-11-05T08:27:50.300Z,38.60
2018-11-05T08:30:23.458Z,36.40
2018-11-05T08:32:52.325Z,37.53
2018-11-05T08:35:22.092Z,37.93
2018-11-05T08:37:51.382Z,34.93
2018-11-05T08:40:22.144Z,35.93
2018-11-05T08:42:51.725Z,36.30
2018-11-05T08:45:22.059Z,35.70
2018-11-05T08:47:50.774Z,34.73
2018-11-05T08:50:20.706Z,39.00
2018-11-05T08:52:49.319Z,37.57
2018-11-05T08:55:20.518Z,41.67
2018-11-05T08:57:49.234Z,45.60
2018-11-05T09:00:23.934Z,43.30
2018-11-05T09:02:53.509Z,42.90
2018-11-05T09:05:22.751Z,45.20
2018-11-05T09:07:52.341Z,42.67
2018-11-05T09:10:21.377Z,40.67
2018-11-05T09:12:49.833Z,36.37
2018-11-05T09:15:19.781Z,36.87
2018-11-05T09:17:48.888Z,37.97
2018-11-05T09:20:18.519Z,37.37
2018-11-05T09:22:47.765Z,35.80
2018-11-05T09:25:17.086Z,35.57
2018-11-05T09:27:45.871Z,37.07
2018-11-05T09:30:18.557Z,37.23
2018-11-05T09:32:47.460Z,42.23
2018-11-05T09:35:16.095Z,38.30
2018-11-05T09:37:44.856Z,34.23
2018-11-05T09:40:17.826Z,36.67
2018-11-05T09:42:47.132Z,37.20
2018-11-05T09:45:18.346Z,36.27
2018-11-05T09:47:47.649Z,38.23
2018-11-05T09:50:16.906Z,37.30
2018-11-05T09:52:45.605Z,36.77
2018-11-05T09:55:14.760Z,35.53
2018-11-05T09:57:43.444Z,34.07
2018-11-05T10:00:15.338Z,32.63
2018-11-05T10:02:49.361Z,35.43
2018-11-05T10:05:18.334Z,36.67
2018-11-05T10:07:47.176Z,35.10
2018-11-05T10:10:16.736Z,36.07
2018-11-05T10:12:45.733Z,32.80
2018-11-05T10:15:15.420Z,30.00
2018-11-05T10:17:44.092Z,33.60
2018-11-05T10:20:16.172Z,30.30
2018-11-05T10:22:45.511Z,32.40
2018-11-05T10:25:14.709Z,31.60
2018-11-05T10:27:43.353Z,32.73
2018-11-05T10:30:16.589Z,31.83
2018-11-05T10:32:45.498Z,29.57
2018-11-05T10:35:15.148Z,31.83
2018-11-05T10:37:43.756Z,31.07
2018-11-05T10:40:15.533Z,32.23
2018-11-05T10:42:45.300Z,32.50
2018-11-05T10:45:15.228Z,33.63
2018-11-05T10:47:43.885Z,33.97
2018-11-05T10:50:13.950Z,34.03
2018-11-05T10:52:43.119Z,34.37
2018-11-05T10:55:11.855Z,33.73
2018-11-05T10:57:41.374Z,30.87
2018-11-05T11:02:57.290Z,31.83
2018-11-05T11:05:26.798Z,32.03
2018-11-05T11:07:57.210Z,35.17
2018-11-05T11:10:26.815Z,32.37
2018-11-05T11:12:55.683Z,31.53
2018-11-05T11:15:24.593Z,34.07
2018-11-05T11:17:53.515Z,33.20
2018-11-05T11:20:22.213Z,33.00
2018-11-05T11:22:51.117Z,31.27
2018-11-05T11:25:19.797Z,36.00
2018-11-05T11:27:48.484Z,35.20
2018-11-05T11:30:17.533Z,35.77
2018-11-05T11:32:47.074Z,31.83
2018-11-05T11:35:15.773Z,33.83
2018-11-05T11:37:44.482Z,34.50
2018-11-05T11:40:17.418Z,32.67
2018-11-05T11:42:47.124Z,33.43
2018-11-05T11:45:16.747Z,33.73
2018-11-05T11:47:45.536Z,34.60
2018-11-05T11:50:15.331Z,32.77
2018-11-05T11:52:44.214Z,35.67
2018-11-05T11:55:15.052Z,34.37
2018-11-05T11:57:44.502Z,34.90
2018-11-05T12:00:15.696Z,34.30
2018-11-05T12:02:45.129Z,34.20
2018-11-05T12:05:14.307Z,29.20
2018-11-05T12:07:43.162Z,33.27
2018-11-05T12:10:14.065Z,33.20
2018-11-05T12:12:42.950Z,34.30
2018-11-05T12:15:12.473Z,32.93
2018-11-05T12:17:41.902Z,34.30
2018-11-05T12:20:13.271Z,34.53
2018-11-05T12:22:42.418Z,34.63
2018-11-05T12:25:11.260Z,34.07
2018-11-05T12:27:39.925Z,35.23
2018-11-05T12:30:10.834Z,37.90
2018-11-05T12:32:39.637Z,34.20
2018-11-05T12:35:09.838Z,35.03
2018-11-05T12:37:38.794Z,38.60
2018-11-05T12:40:09.390Z,37.00
2018-11-05T12:42:38.121Z,33.60
2018-11-05T12:45:07.710Z,39.47
2018-11-05T12:47:36.424Z,37.13
2018-11-05T12:50:06.940Z,38.33
2018-11-05T12:52:35.653Z,35.03
2018-11-05T12:55:04.553Z,39.37
2018-11-05T12:57:33.269Z,36.30
2018-11-05T13:00:01.956Z,40.03
2018-11-05T13:02:30.809Z,38.13
2018-11-05T13:05:01.385Z,38.17
2018-11-05T13:07:30.325Z,39.10
2018-11-05T13:09:59.084Z,41.80
2018-11-05T13:12:27.671Z,40.00
2018-11-05T13:14:56.655Z,40.60
2018-11-05T13:17:25.287Z,41.40
2018-11-05T13:19:54.035Z,41.17
2018-11-05T13:22:22.832Z,40.43
2018-11-05T13:24:51.533Z,38.57
2018-11-05T13:27:20.201Z,41.33
2018-11-05T13:29:49.040Z,40.63
2018-11-05T13:32:17.724Z,38.10
2018-11-05T13:34:46.345Z,40.70
2018-11-05T13:37:15.006Z,43.63
2018-11-05T13:39:43.621Z,38.50
2018-11-05T13:42:12.261Z,33.57
2018-11-05T13:44:40.964Z,35.90
2018-11-05T13:47:11.901Z,39.73
2018-11-05T13:49:40.014Z,39.43
2018-11-05T13:52:08.872Z,37.33
2018-11-05T13:54:37.589Z,36.33
2018-11-05T13:57:06.308Z,35.47
2018-11-05T13:59:34.946Z,36.77
2018-11-05T14:02:03.722Z,35.97
2018-11-05T14:04:32.454Z,35.60
2018-11-05T14:07:01.143Z,34.00
2018-11-05T14:09:30.725Z,35.00
2018-11-05T14:11:59.545Z,33.90
2018-11-05T14:14:28.391Z,35.73
2018-11-05T14:16:57.240Z,34.70
2018-11-05T14:19:25.970Z,39.07
2018-11-05T14:21:54.670Z,39.90
2018-11-05T14:24:23.355Z,38.87
2018-11-05T14:26:52.594Z,39.10
2018-11-05T14:29:21.775Z,38.23
2018-11-05T14:31:51.767Z,40.50
2018-11-05T14:34:20.505Z,44.80
2018-11-05T14:36:49.185Z,38.40
2018-11-05T14:39:17.822Z,36.47
2018-11-05T14:41:46.438Z,43.73
2018-11-05T14:44:15.093Z,42.03
2018-11-05T14:46:43.704Z,45.50
2018-11-05T14:49:13.237Z,41.60
2018-11-05T14:51:41.985Z,44.03
2018-11-05T14:54:11.537Z,42.30
2018-11-05T14:56:40.367Z,40.80
2018-11-05T14:59:08.995Z,41.67
2018-11-05T15:01:37.677Z,41.50
2018-11-05T15:04:06.342Z,40.97
2018-11-05T15:06:34.890Z,44.17
2018-11-05T15:09:03.912Z,38.43
2018-11-05T15:11:32.564Z,38.40
2018-11-05T15:14:01.364Z,42.60
2018-11-05T15:16:30.110Z,39.93
2018-11-05T15:18:58.904Z,39.40
2018-11-05T15:21:27.536Z,42.00
2018-11-05T15:23:56.219Z,39.70
2018-11-05T15:26:25.071Z,40.70
2018-11-05T15:28:53.607Z,39.60
2018-11-05T15:31:22.341Z,41.97
2018-11-05T15:33:51.040Z,41.63
2018-11-05T15:36:19.769Z,41.87
2018-11-05T15:38:48.393Z,43.50
2018-11-05T15:41:17.039Z,41.40
2018-11-05T15:43:45.572Z,42.07
2018-11-05T15:46:14.205Z,41.63
2018-11-05T15:48:42.895Z,42.17
2018-11-05T15:51:11.630Z,39.03
2018-11-05T15:53:40.252Z,39.67
2018-11-05T15:56:08.799Z,37.83
2018-11-05T15:58:37.549Z,38.40
2018-11-05T16:01:06.765Z,44.20
2018-11-05T16:03:35.349Z,41.50
2018-11-05T16:06:03.938Z,40.13
2018-11-05T16:08:32.650Z,38.60
2018-11-05T16:11:01.208Z,40.50
2018-11-05T16:13:29.907Z,47.07
2018-11-05T16:15:58.573Z,41.67
2018-11-05T16:18:27.257Z,37.23
2018-11-05T16:20:55.939Z,39.20
2018-11-05T16:23:24.554Z,38.60
2018-11-05T16:25:53.318Z,38.83
2018-11-05T16:28:22.003Z,44.83
2018-11-05T16:30:50.755Z,44.83
2018-11-05T16:33:19.479Z,45.13
2018-11-05T16:35:48.190Z,44.97
2018-11-05T16:38:16.848Z,40.17
2018-11-05T16:40:45.475Z,46.03
2018-11-05T16:43:14.136Z,46.63
2018-11-05T16:45:42.994Z,51.27
2018-11-05T16:48:11.666Z,48.37
2018-11-05T16:50:40.344Z,46.53
2018-11-05T16:53:08.917Z,46.47
2018-11-05T16:55:37.468Z,48.83
2018-11-05T16:58:06.645Z,47.08
2018-11-05T17:00:35.328Z,55.50
2018-11-05T17:03:04.028Z,46.27
2018-11-05T17:05:32.746Z,47.53
2018-11-05T17:08:01.372Z,49.27
2018-11-05T17:10:30.033Z,50.97
2018-11-05T17:12:58.773Z,53.03
2018-11-05T17:15:27.461Z,53.87
2018-11-05T17:17:56.252Z,54.20
2018-11-05T17:20:24.945Z,53.10
2018-11-05T17:22:53.483Z,53.53
2018-11-05T17:25:22.197Z,53.87
2018-11-05T17:27:50.962Z,54.60
2018-11-05T17:30:20.934Z,54.03
2018-11-05T17:32:49.892Z,57.53
2018-11-05T17:35:18.963Z,53.27
2018-11-05T17:37:48.246Z,54.00
2018-11-05T17:40:18.501Z,52.37
2018-11-05T17:42:47.266Z,51.43
2018-11-05T17:45:17.421Z,53.77
2018-11-05T17:47:46.233Z,55.13
2018-11-05T17:50:15.921Z,60.40
2018-11-05T17:52:44.835Z,57.90
2018-11-05T17:55:13.772Z,62.03
2018-11-05T17:57:43.458Z,57.57
2018-11-05T18:00:15.130Z,58.33
2018-11-05T18:02:43.711Z,54.43
2018-11-05T18:05:12.698Z,57.03
2018-11-05T18:07:41.696Z,57.70
2018-11-05T18:10:10.553Z,60.57
2018-11-05T18:12:39.324Z,60.40
2018-11-05T18:15:09.515Z,63.37
2018-11-05T18:17:38.817Z,60.53
2018-11-05T18:20:08.828Z,63.63
2018-11-05T18:22:38.121Z,61.57
2018-11-05T18:25:08.802Z,59.40
2018-11-05T18:27:37.437Z,59.73
2018-11-05T18:30:06.514Z,63.00
2018-11-05T18:32:35.128Z,57.87
2018-11-05T18:35:03.919Z,54.33
2018-11-05T18:37:32.661Z,60.13
2018-11-05T18:40:01.561Z,59.00
2018-11-05T18:42:30.281Z,64.43
2018-11-05T18:44:58.968Z,64.53
2018-11-05T18:47:27.719Z,55.50
2018-11-05T18:49:56.870Z,60.10
2018-11-05T18:52:25.578Z,54.00
2018-11-05T18:54:54.344Z,61.77
2018-11-05T18:57:23.137Z,59.53
2018-11-05T18:59:51.832Z,56.20
2018-11-05T19:02:27.537Z,55.77
2018-11-05T19:04:56.340Z,47.13
2018-11-05T19:07:25.017Z,50.13
2018-11-05T19:09:53.821Z,48.67
2018-11-05T19:12:22.498Z,57.07
2018-11-05T19:14:51.431Z,55.43
2018-11-05T19:17:20.024Z,51.07
2018-11-05T19:19:48.777Z,51.33
2018-11-05T19:22:17.535Z,54.23
2018-11-05T19:24:46.252Z,56.93
2018-11-05T19:27:14.967Z,52.30
2018-11-05T19:29:43.952Z,53.57
2018-11-05T19:32:12.823Z,55.60
2018-11-05T19:34:41.714Z,59.83
2018-11-05T19:37:10.431Z,57.73
2018-11-05T19:39:39.080Z,56.43
2018-11-05T19:42:08.027Z,57.43
2018-11-05T19:44:36.655Z,53.37
2018-11-05T19:47:05.278Z,53.83
2018-11-05T19:49:33.942Z,58.30
2018-11-05T19:52:02.737Z,58.50
2018-11-05T19:54:31.590Z,50.13
2018-11-05T19:57:00.414Z,65.43
2018-11-05T19:59:29.359Z,50.90
2018-11-05T20:01:58.381Z,53.87
2018-11-05T20:04:27.219Z,55.33
2018-11-05T20:06:55.974Z,54.50
2018-11-05T20:09:24.760Z,60.33
2018-11-05T20:11:53.471Z,55.63
2018-11-05T20:14:22.165Z,52.37
2018-11-05T20:16:51.205Z,54.37
2018-11-05T20:19:19.896Z,51.37
2018-11-05T20:21:48.573Z,48.77
2018-11-05T20:24:17.480Z,48.47
2018-11-05T20:26:46.398Z,46.50
2018-11-05T20:29:15.160Z,46.67
2018-11-05T20:31:44.099Z,43.10
2018-11-05T20:34:13.000Z,42.60
2018-11-05T20:36:41.336Z,45.07
2018-11-05T20:39:12.007Z,43.90
2018-11-05T20:41:41.018Z,40.90
2018-11-05T20:44:09.842Z,39.57
2018-11-05T20:46:38.624Z,42.90
2018-11-05T20:49:07.324Z,41.83
2018-11-05T20:51:36.193Z,41.67
2018-11-05T20:54:05.230Z,42.13
2018-11-05T20:56:33.856Z,41.90
2018-11-05T20:59:02.508Z,43.13
2018-11-05T21:01:31.287Z,37.90
2018-11-05T21:04:00.045Z,42.20
2018-11-05T21:06:28.728Z,43.00
2018-11-05T21:08:57.351Z,42.83
2018-11-05T21:11:25.946Z,41.53
2018-11-05T21:13:54.555Z,42.83
2018-11-05T21:16:23.521Z,40.53
2018-11-05T21:18:52.120Z,39.60
2018-11-05T21:21:20.771Z,37.87
2018-11-05T21:23:50.398Z,38.67
2018-11-05T21:26:19.002Z,36.13
2018-11-05T21:28:47.648Z,40.20
2018-11-05T21:31:16.451Z,36.97
2018-11-05T21:33:45.180Z,37.57
2018-11-05T21:36:13.790Z,35.73
2018-11-05T21:38:42.424Z,40.37
2018-11-05T21:41:11.161Z,40.30
2018-11-05T21:43:40.003Z,35.87
2018-11-05T21:46:09.591Z,37.60
2018-11-05T21:48:38.169Z,39.20
2018-11-05T21:51:06.932Z,36.83
2018-11-05T21:53:35.874Z,38.30
2018-11-05T21:56:04.538Z,38.33
2018-11-05T21:58:33.247Z,37.20
2018-11-05T22:01:01.842Z,34.20
2018-11-05T22:03:30.770Z,36.57
2018-11-05T22:05:59.452Z,37.47
2018-11-05T22:08:28.278Z,34.40
2018-11-05T22:10:57.066Z,35.40
2018-11-05T22:13:25.725Z,34.33
2018-11-05T22:15:54.735Z,36.00
2018-11-05T22:18:23.441Z,35.63
2018-11-05T22:20:52.643Z,32.53
2018-11-05T22:23:21.408Z,36.20
2018-11-05T22:25:50.146Z,36.33
2018-11-05T22:28:18.883Z,34.80
2018-11-05T22:30:47.749Z,34.97
2018-11-05T22:33:16.508Z,35.63
2018-11-05T22:35:45.341Z,33.47
2018-11-05T22:38:14.239Z,33.25
2018-11-05T22:40:42.991Z,35.40
2018-11-05T22:43:11.741Z,33.37
2018-11-05T22:45:40.462Z,33.57
2018-11-05T22:48:09.243Z,37.60
2018-11-05T22:50:37.936Z,31.13
2018-11-05T22:53:08.104Z,32.70
2018-11-05T22:55:36.706Z,31.10
2018-11-05T22:58:05.970Z,32.17
2018-11-05T23:00:39.861Z,30.53
2018-11-05T23:03:13.812Z,32.20
2018-11-05T23:05:42.439Z,29.63
2018-11-05T23:08:11.157Z,31.13
2018-11-05T23:10:39.891Z,31.10
2018-11-05T23:13:08.528Z,29.57
2018-11-05T23:15:37.263Z,30.60
2018-11-05T23:18:06.475Z,28.97
2018-11-05T23:20:35.115Z,32.50
2018-11-05T23:23:03.869Z,30.60
2018-11-05T23:25:32.621Z,32.90
2018-11-05T23:28:01.291Z,34.50
2018-11-05T23:30:30.069Z,31.07
2018-11-05T23:32:58.834Z,31.17
2018-11-05T23:35:27.697Z,28.63
2018-11-05T23:37:57.163Z,31.20
2018-11-05T23:40:26.106Z,30.80
2018-11-05T23:42:54.866Z,30.13
2018-11-05T23:45:23.678Z,27.97
2018-11-05T23:47:52.371Z,29.57
2018-11-05T23:50:21.099Z,27.37
2018-11-05T23:52:49.968Z,28.47
2018-11-05T23:55:18.808Z,29.77
2018-11-05T23:57:51.179Z,26.87
